aviador You're here:

HEMM Decoded Metar

MERSA-MATRUH in EGYPT
Report Time2017-09-25 04:00:00
UTC Time2017-09-25 04:28:29
Flight Rules vfr VFR
Wind250° at 05 kt
W.Decomp.*RWY 24: 5.0 kt HW 0.6 kt RCW
RWY 33: 0.6 kt HW 5 kt LCW
W.Rank250° ranks 14
Current wind is below 250° avg. (9.0)
Visibility9999 m
Phenomena:N/A
Clouds:N/A
Expected CloudBase > 2,000 ft AGL from Temp-Dew spread
CeilingNone
Temp22°C (ISA +7)
Dew Point17°C (73% RH)
QNH1015 hPa
Density Alt1,125 ft
Elevation98 ft
Report Wrong Elevation
Raw Report
HEMM 250400Z 25005KT CAVOK 22/17 Q1015 NOSIG=

Extra information for HEMM:More info

Metar Taf Metar & Taf Last 4 Metars F.Rules Stats Wind Profile Meteogram Temp Stats Airport Information Weather charts Add Link Nearby VenuesMetar ALERT Operation Metar Decoded Social comments